createdAt,value
2018-04-07T00:00:40.737Z,99.90
2018-04-07T00:03:07.632Z,99.90
2018-04-07T00:05:33.748Z,99.90
2018-04-07T00:07:59.947Z,99.90
2018-04-07T00:10:26.158Z,99.90
2018-04-07T00:12:53.101Z,99.90
2018-04-07T00:15:20.004Z,99.90
2018-04-07T00:17:46.131Z,99.90
2018-04-07T00:20:12.297Z,99.90
2018-04-07T00:22:39.195Z,99.90
2018-04-07T00:25:05.364Z,99.90
2018-04-07T00:27:32.271Z,99.90
2018-04-07T00:29:58.487Z,99.90
2018-04-07T00:32:24.657Z,99.90
2018-04-07T00:34:50.774Z,99.90
2018-04-07T00:37:16.985Z,99.90
2018-04-07T00:39:43.171Z,99.90
2018-04-07T00:42:09.327Z,99.90
2018-04-07T00:44:35.493Z,99.90
2018-04-07T00:47:02.379Z,99.90
2018-04-07T00:49:28.538Z,99.90
2018-04-07T00:51:54.720Z,99.90
2018-04-07T00:54:20.911Z,99.90
2018-04-07T00:56:47.873Z,99.90
2018-04-07T00:59:14.025Z,99.90
2018-04-07T01:01:40.215Z,99.90
2018-04-07T01:04:07.154Z,99.90
2018-04-07T01:06:33.338Z,99.90
2018-04-07T01:08:59.490Z,99.90
2018-04-07T01:11:26.587Z,99.90
2018-04-07T01:13:52.741Z,99.90
2018-04-07T01:16:18.895Z,99.90
2018-04-07T01:18:45.096Z,99.90
2018-04-07T01:21:11.262Z,99.90
2018-04-07T01:23:37.437Z,99.90
2018-04-07T01:26:03.576Z,99.90
2018-04-07T01:28:29.762Z,99.90
2018-04-07T01:30:56.696Z,99.90
2018-04-07T01:33:23.581Z,99.90
2018-04-07T01:35:49.988Z,99.90
2018-04-07T01:38:16.871Z,99.90
2018-04-07T01:40:43.050Z,99.90
2018-04-07T01:43:09.960Z,99.90
2018-04-07T01:45:36.157Z,99.90
2018-04-07T01:48:02.330Z,99.90
2018-04-07T01:50:28.475Z,99.90
2018-04-07T01:52:55.389Z,99.90
2018-04-07T01:55:21.548Z,99.90
2018-04-07T01:57:48.444Z,99.90
2018-04-07T02:00:14.598Z,99.90
2018-04-07T02:02:40.761Z,99.90
2018-04-07T02:05:06.941Z,99.90
2018-04-07T02:07:33.112Z,99.90
2018-04-07T02:09:59.300Z,99.90
2018-04-07T02:12:25.506Z,99.90
2018-04-07T02:14:51.621Z,99.90
2018-04-07T02:17:17.771Z,99.90
2018-04-07T02:19:43.955Z,99.90
2018-04-07T02:22:10.143Z,99.90
2018-04-07T02:24:36.254Z,99.90
2018-04-07T02:27:02.455Z,99.90
2018-04-07T02:29:28.688Z,99.90
2018-04-07T02:31:54.830Z,99.90
2018-04-07T02:34:21.001Z,99.90
2018-04-07T02:36:47.147Z,99.90
2018-04-07T02:39:13.370Z,99.90
2018-04-07T02:41:39.557Z,99.90
2018-04-07T02:44:06.459Z,99.90
2018-04-07T02:46:32.598Z,99.90
2018-04-07T02:48:58.776Z,99.90
2018-04-07T02:51:25.691Z,99.90
2018-04-07T02:53:51.844Z,99.90
2018-04-07T02:56:18.792Z,99.90
2018-04-07T02:58:45.755Z,99.90
2018-04-07T03:01:11.961Z,99.90
2018-04-07T03:03:38.921Z,99.90
2018-04-07T03:06:05.091Z,99.90
2018-04-07T03:08:31.245Z,99.90
2018-04-07T03:10:57.404Z,99.90
2018-04-07T03:13:23.538Z,99.90
2018-04-07T03:15:49.725Z,99.90
2018-04-07T03:18:15.857Z,99.90
2018-04-07T03:20:42.779Z,99.90
2018-04-07T03:23:08.934Z,99.90
2018-04-07T03:25:35.807Z,99.90
2018-04-07T03:28:01.977Z,99.90
2018-04-07T03:30:28.141Z,99.90
2018-04-07T03:32:55.018Z,99.90
2018-04-07T03:35:21.233Z,99.90
2018-04-07T03:37:47.415Z,99.90
2018-04-07T03:40:14.371Z,99.90
2018-04-07T03:42:41.321Z,99.90
2018-04-07T03:45:08.283Z,99.90
2018-04-07T03:47:34.419Z,99.90
2018-04-07T03:50:00.599Z,99.90
2018-04-07T03:52:27.494Z,99.90
2018-04-07T03:54:53.650Z,99.90
2018-04-07T03:57:19.818Z,99.90
2018-04-07T03:59:46.680Z,99.90
2018-04-07T04:02:12.849Z,99.90
2018-04-07T04:04:38.980Z,99.90
2018-04-07T04:07:05.081Z,99.90
2018-04-07T04:09:31.208Z,99.90
2018-04-07T04:11:57.396Z,99.90
2018-04-07T04:14:24.308Z,99.90
2018-04-07T04:16:50.500Z,99.90
2018-04-07T04:19:16.703Z,99.90
2018-04-07T04:21:42.840Z,99.90
2018-04-07T04:24:09.022Z,99.90
2018-04-07T04:26:35.850Z,99.90
2018-04-07T04:29:01.965Z,99.90
2018-04-07T04:31:28.105Z,99.90
2018-04-07T04:33:54.254Z,99.90
2018-04-07T04:36:20.371Z,99.90
2018-04-07T04:38:47.304Z,99.90
2018-04-07T04:41:13.471Z,99.90
2018-04-07T04:43:40.345Z,99.90
2018-04-07T04:46:06.543Z,99.90
2018-04-07T04:48:32.736Z,99.90
2018-04-07T04:50:58.846Z,99.90
2018-04-07T04:53:25.075Z,99.90
2018-04-07T04:55:51.230Z,99.90
2018-04-07T04:58:17.348Z,99.90
2018-04-07T05:00:44.250Z,99.90
2018-04-07T05:03:10.448Z,99.90
2018-04-07T05:05:36.619Z,99.90
2018-04-07T05:08:02.733Z,99.90
2018-04-07T05:10:28.927Z,99.90
2018-04-07T05:12:55.173Z,99.90
2018-04-07T05:15:21.376Z,99.90
2018-04-07T05:17:48.296Z,99.90
2018-04-07T05:20:14.492Z,99.90
2018-04-07T05:22:40.680Z,99.90
2018-04-07T05:25:07.642Z,99.90
2018-04-07T05:27:33.799Z,99.90
2018-04-07T05:30:00.014Z,99.90
2018-04-07T05:32:26.184Z,99.90
2018-04-07T05:34:52.329Z,99.90
2018-04-07T05:37:19.294Z,99.90
2018-04-07T05:39:45.526Z,99.90
2018-04-07T05:42:11.724Z,99.90
2018-04-07T05:44:38.651Z,99.90
2018-04-07T05:47:05.567Z,99.90
2018-04-07T05:49:31.733Z,99.90
2018-04-07T05:51:58.612Z,99.90
2018-04-07T05:54:24.722Z,99.90
2018-04-07T05:56:51.612Z,99.90
2018-04-07T05:59:17.783Z,99.90
2018-04-07T06:01:44.708Z,99.90
2018-04-07T06:04:10.876Z,99.90
2018-04-07T06:06:37.105Z,99.90
2018-04-07T06:09:03.295Z,99.90
2018-04-07T06:11:29.497Z,99.90
2018-04-07T06:13:55.721Z,99.90
2018-04-07T06:16:21.902Z,99.90
2018-04-07T06:18:48.061Z,99.90
2018-04-07T06:21:14.287Z,99.90
2018-04-07T06:23:40.458Z,99.90
2018-04-07T06:26:06.601Z,99.90
2018-04-07T06:28:33.507Z,99.90
2018-04-07T06:30:59.648Z,99.90
2018-04-07T06:33:26.557Z,99.90
2018-04-07T06:35:52.765Z,99.90
2018-04-07T06:38:18.902Z,99.90
2018-04-07T06:40:45.107Z,99.90
2018-04-07T06:43:12.028Z,99.90
2018-04-07T06:45:38.971Z,99.90
2018-04-07T06:48:05.156Z,99.90
2018-04-07T06:50:31.358Z,99.90
2018-04-07T06:52:57.560Z,99.90
2018-04-07T06:55:24.563Z,99.90
2018-04-07T06:57:50.747Z,99.90
2018-04-07T07:00:17.637Z,99.90
2018-04-07T07:02:43.821Z,99.90
2018-04-07T07:05:10.693Z,99.90
2018-04-07T07:07:36.924Z,99.90
2018-04-07T07:10:03.163Z,99.90
2018-04-07T07:12:29.384Z,99.90
2018-04-07T07:14:55.574Z,99.90
2018-04-07T07:17:22.476Z,98.60
2018-04-07T07:19:48.671Z,98.40
2018-04-07T07:22:14.884Z,96.50
2018-04-07T07:24:41.042Z,96.00
2018-04-07T07:27:07.284Z,96.10
2018-04-07T07:29:33.462Z,95.40
2018-04-07T07:31:59.703Z,95.80
2018-04-07T07:34:25.896Z,95.90
2018-04-07T07:36:52.041Z,96.60
2018-04-07T07:39:18.885Z,92.50
2018-04-07T07:41:45.910Z,95.40
2018-04-07T07:44:12.085Z,95.40
2018-04-07T07:46:38.230Z,93.10
2018-04-07T07:49:04.334Z,91.90
2018-04-07T07:51:30.533Z,93.50
2018-04-07T07:53:57.429Z,88.40
2018-04-07T07:56:23.614Z,88.20
2018-04-07T07:58:49.735Z,90.50
2018-04-07T08:01:16.636Z,83.00
2018-04-07T08:03:42.818Z,83.00
2018-04-07T08:06:09.068Z,85.00
2018-04-07T08:08:35.266Z,84.80
2018-04-07T08:11:01.495Z,84.30
2018-04-07T08:13:27.714Z,84.70
2018-04-07T08:15:54.625Z,83.30
2018-04-07T08:18:21.067Z,83.20
2018-04-07T08:20:47.214Z,79.90
2018-04-07T08:23:13.404Z,78.70
2018-04-07T08:25:39.489Z,78.60
2018-04-07T08:28:05.666Z,80.30
2018-04-07T08:30:31.801Z,79.10
2018-04-07T08:32:58.696Z,78.50
2018-04-07T08:35:24.910Z,78.40
2018-04-07T08:37:51.061Z,75.60
2018-04-07T08:40:17.375Z,75.80
2018-04-07T08:42:43.505Z,76.60
2018-04-07T08:45:09.693Z,75.70
2018-04-07T08:47:36.655Z,70.40
2018-04-07T08:50:02.859Z,70.40
2018-04-07T08:52:28.990Z,72.10
2018-04-07T08:54:55.128Z,70.70
2018-04-07T08:57:22.066Z,69.20
2018-04-07T08:59:48.233Z,69.00
2018-04-07T09:02:14.364Z,69.70
2018-04-07T09:04:40.567Z,68.90
2018-04-07T09:07:06.705Z,68.10
2018-04-07T09:09:32.873Z,67.20
2018-04-07T09:11:59.027Z,64.30
2018-04-07T09:14:25.968Z,67.30
2018-04-07T09:16:52.881Z,67.40
2018-04-07T09:19:19.048Z,66.50
2018-04-07T09:21:45.946Z,63.10
2018-04-07T09:24:12.066Z,63.00
2018-04-07T09:26:38.212Z,60.80
2018-04-07T09:29:04.413Z,61.70
2018-04-07T09:31:30.608Z,60.60
2018-04-07T09:33:56.775Z,58.60
2018-04-07T09:36:22.935Z,60.00
2018-04-07T09:38:49.122Z,56.00
2018-04-07T09:41:15.300Z,57.90
2018-04-07T09:43:42.251Z,53.50
2018-04-07T09:46:09.133Z,51.10
2018-04-07T09:48:35.333Z,51.00
2018-04-07T09:51:01.493Z,56.50
2018-04-07T09:53:27.664Z,54.40
2018-04-07T09:55:53.848Z,55.40
2018-04-07T09:58:20.050Z,56.90
2018-04-07T10:00:46.267Z,57.20
2018-04-07T10:03:13.189Z,55.90
2018-04-07T10:05:39.413Z,55.70
2018-04-07T10:08:05.587Z,53.20
2018-04-07T10:10:31.756Z,52.60
2018-04-07T10:12:57.906Z,54.10
2018-04-07T10:15:24.852Z,52.20
2018-04-07T10:17:51.712Z,53.80
2018-04-07T10:20:18.625Z,55.30
2018-04-07T10:22:44.820Z,55.20
2018-04-07T10:25:11.049Z,51.90
2018-04-07T10:27:37.225Z,50.30
2018-04-07T10:30:04.162Z,51.90
2018-04-07T10:32:31.088Z,49.70
2018-04-07T10:34:57.183Z,49.30
2018-04-07T10:37:23.352Z,50.10
2018-04-07T10:39:49.507Z,50.90
2018-04-07T10:42:16.448Z,50.80
2018-04-07T10:44:43.352Z,50.00
2018-04-07T10:47:09.498Z,50.00
2018-04-07T10:49:35.652Z,50.50
2018-04-07T10:52:01.822Z,49.20
2018-04-07T10:54:28.016Z,48.90
2018-04-07T10:56:54.177Z,48.60
2018-04-07T10:59:20.286Z,48.70
2018-04-07T11:01:46.433Z,47.60
2018-04-07T11:04:12.605Z,47.10
2018-04-07T11:06:39.478Z,46.40
2018-04-07T11:09:05.668Z,46.40
2018-04-07T11:11:32.573Z,46.80
2018-04-07T11:13:58.828Z,46.70
2018-04-07T11:16:24.993Z,45.70
2018-04-07T11:18:51.146Z,47.30
2018-04-07T11:21:17.321Z,46.60
2018-04-07T11:23:44.263Z,46.60
2018-04-07T11:26:10.460Z,46.60
2018-04-07T11:28:36.630Z,45.90
2018-04-07T11:31:03.556Z,44.30
2018-04-07T11:33:30.472Z,44.70
2018-04-07T11:35:56.627Z,44.50
2018-04-07T11:38:22.793Z,46.60
2018-04-07T11:40:49.871Z,45.70
2018-04-07T11:43:16.064Z,44.50
2018-04-07T11:45:42.268Z,43.30
2018-04-07T11:48:09.166Z,46.40
2018-04-07T11:50:35.359Z,46.40
2018-04-07T11:53:01.478Z,42.50
2018-04-07T11:55:28.369Z,44.10
2018-04-07T11:57:54.582Z,44.00
2018-04-07T12:00:20.760Z,44.80
2018-04-07T12:02:47.685Z,41.10
2018-04-07T12:05:14.633Z,42.20
2018-04-07T12:07:40.805Z,42.00
2018-04-07T12:10:06.929Z,41.20
2018-04-07T12:12:33.089Z,41.90
2018-04-07T12:14:59.272Z,40.30
2018-04-07T12:17:26.204Z,40.50
2018-04-07T12:19:53.069Z,40.40
2018-04-07T12:22:19.282Z,40.30
2018-04-07T12:24:46.187Z,38.90
2018-04-07T12:27:12.301Z,38.80
2018-04-07T12:29:38.479Z,38.30
2018-04-07T12:32:05.432Z,38.70
2018-04-07T12:34:31.581Z,38.50
2018-04-07T12:36:57.734Z,38.10
2018-04-07T12:39:23.956Z,37.70
2018-04-07T12:41:50.163Z,38.90
2018-04-07T12:44:16.329Z,38.20
2018-04-07T12:46:42.523Z,42.20
2018-04-07T12:49:08.663Z,42.30
2018-04-07T12:51:34.840Z,39.20
2018-04-07T12:54:01.784Z,37.90
2018-04-07T12:56:28.660Z,37.20
2018-04-07T12:58:54.815Z,37.20
2018-04-07T13:01:20.955Z,34.90
2018-04-07T13:03:47.198Z,38.10
2018-04-07T13:06:13.347Z,36.50
2018-04-07T13:08:39.524Z,36.90
2018-04-07T13:11:05.681Z,36.20
2018-04-07T13:13:32.588Z,36.70
2018-04-07T13:15:58.711Z,37.10
2018-04-07T13:18:24.853Z,38.10
2018-04-07T13:20:51.021Z,34.50
2018-04-07T13:23:17.936Z,37.10
2018-04-07T13:25:44.072Z,37.10
2018-04-07T13:28:10.276Z,35.00
2018-04-07T13:30:36.459Z,36.00
2018-04-07T13:33:02.647Z,36.60
2018-04-07T13:35:28.839Z,34.60
2018-04-07T13:37:55.026Z,35.90
2018-04-07T13:40:21.264Z,34.50
2018-04-07T13:42:47.450Z,35.50
2018-04-07T13:45:13.630Z,34.50
2018-04-07T13:47:39.729Z,35.90
2018-04-07T13:50:06.611Z,35.80
2018-04-07T13:52:32.789Z,35.80
2018-04-07T13:54:59.755Z,33.40
2018-04-07T13:57:25.927Z,33.30
2018-04-07T13:59:52.092Z,35.20
2018-04-07T14:02:19.030Z,35.00
2018-04-07T14:04:45.153Z,34.90
2018-04-07T14:07:11.303Z,33.30
2018-04-07T14:09:38.236Z,34.30
2018-04-07T14:12:05.143Z,36.20
2018-04-07T14:14:31.356Z,36.10
2018-04-07T14:16:57.551Z,34.10
2018-04-07T14:19:23.723Z,33.50
2018-04-07T14:21:49.942Z,32.60
2018-04-07T14:24:16.062Z,32.90
2018-04-07T14:26:42.237Z,32.30
2018-04-07T14:29:09.105Z,33.00
2018-04-07T14:31:35.318Z,32.90
2018-04-07T14:34:02.285Z,34.20
2018-04-07T14:36:28.452Z,34.20
2018-04-07T14:38:54.660Z,33.90
2018-04-07T14:41:20.833Z,32.90
2018-04-07T14:43:47.751Z,33.30
2018-04-07T14:46:13.904Z,32.70
2018-04-07T14:48:40.057Z,33.60
2018-04-07T14:51:06.205Z,34.40
2018-04-07T14:53:32.359Z,33.80
2018-04-07T14:55:58.488Z,32.80
2018-04-07T14:58:24.661Z,35.60
2018-04-07T15:00:50.790Z,33.60
2018-04-07T15:03:16.986Z,34.00
2018-04-07T15:05:43.109Z,35.00
2018-04-07T15:08:09.321Z,35.10
2018-04-07T15:10:35.500Z,35.00
2018-04-07T15:13:01.672Z,36.10
2018-04-07T15:15:27.816Z,34.80
2018-04-07T15:17:54.015Z,36.00
2018-04-07T15:20:20.136Z,36.30
2018-04-07T15:22:46.307Z,36.20
2018-04-07T15:25:13.222Z,42.10
2018-04-07T15:27:39.371Z,42.00
2018-04-07T15:30:05.540Z,36.60
2018-04-07T15:32:31.737Z,36.60
2018-04-07T15:34:58.648Z,37.10
2018-04-07T15:37:24.788Z,37.10
2018-04-07T15:39:50.902Z,36.50
2018-04-07T15:42:17.072Z,36.40
2018-04-07T15:44:43.260Z,37.10
2018-04-07T15:47:09.386Z,37.10
2018-04-07T15:49:35.481Z,37.50
2018-04-07T15:52:01.656Z,37.10
2018-04-07T15:54:31.673Z,38.90
2018-04-07T15:56:58.595Z,38.90
2018-04-07T15:59:24.806Z,38.90
2018-04-07T16:01:51.016Z,38.50
2018-04-07T16:04:21.731Z,38.50
2018-04-07T16:06:51.403Z,39.00
2018-04-07T16:09:22.499Z,40.20
2018-04-07T16:15:26.607Z,40.80
2018-04-07T16:17:54.477Z,41.30
2018-04-07T16:20:20.793Z,41.20
2018-04-07T16:22:47.159Z,42.00
2018-04-07T16:25:13.484Z,41.90
2018-04-07T16:27:39.707Z,43.40
2018-04-07T16:30:07.234Z,40.30
2018-04-07T16:32:33.405Z,40.30
2018-04-07T16:34:59.523Z,40.70
2018-04-07T16:37:25.763Z,42.10
2018-04-07T16:39:51.932Z,41.00
2018-04-07T16:42:18.064Z,41.50
2018-04-07T16:44:44.201Z,41.50
2018-04-07T16:47:10.375Z,41.20
2018-04-07T16:49:36.584Z,41.20
2018-04-07T16:52:02.851Z,42.00
2018-04-07T16:54:29.035Z,42.30
2018-04-07T16:56:55.909Z,42.40
2018-04-07T16:59:22.096Z,42.40
2018-04-07T17:01:49.003Z,43.40
2018-04-07T17:04:15.226Z,43.40
2018-04-07T17:06:41.408Z,44.30
2018-04-07T17:09:07.614Z,44.90
2018-04-07T17:11:33.787Z,45.30
2018-04-07T17:13:59.923Z,46.90
2018-04-07T17:16:26.111Z,47.70
2018-04-07T17:18:53.009Z,47.90
2018-04-07T17:21:19.163Z,47.90
2018-04-07T17:23:46.159Z,50.10
2018-04-07T17:26:12.364Z,50.30
2018-04-07T17:28:38.572Z,48.20
2018-04-07T17:31:05.430Z,48.70
2018-04-07T17:33:32.379Z,48.60
2018-04-07T17:35:58.561Z,48.60
2018-04-07T17:38:24.669Z,48.80
2018-04-07T17:40:50.869Z,50.70
2018-04-07T17:43:17.100Z,50.40
2018-04-07T17:45:43.268Z,51.20
2018-04-07T17:48:09.421Z,51.30
2018-04-07T17:50:36.572Z,52.90
2018-04-07T17:53:03.535Z,53.80
2018-04-07T17:55:29.738Z,53.80
2018-04-07T17:57:55.909Z,53.10
2018-04-07T18:00:22.008Z,53.10
2018-04-07T18:02:48.960Z,54.80
2018-04-07T18:05:16.040Z,54.70
2018-04-07T18:07:42.235Z,56.30
2018-04-07T18:10:08.412Z,58.60
2018-04-07T18:12:34.560Z,57.20
2018-04-07T18:15:00.716Z,60.20
2018-04-07T18:17:26.877Z,60.00
2018-04-07T18:19:53.052Z,62.70
2018-04-07T18:22:20.031Z,69.50
2018-04-07T18:24:46.170Z,69.50
2018-04-07T18:27:12.306Z,72.70
2018-04-07T18:29:38.526Z,76.00
2018-04-07T18:32:04.736Z,76.00
2018-04-07T18:34:30.909Z,76.60
2018-04-07T18:36:57.083Z,78.40
2018-04-07T18:39:23.201Z,80.50
2018-04-07T18:41:57.181Z,86.70
2018-04-07T18:44:23.362Z,86.70
2018-04-07T18:46:49.476Z,91.00
2018-04-07T18:49:15.672Z,93.10
2018-04-07T18:51:42.720Z,97.20
2018-04-07T18:54:08.897Z,97.20
2018-04-07T18:56:35.089Z,98.50
2018-04-07T18:59:01.949Z,99.30
2018-04-07T19:01:28.153Z,99.30
2018-04-07T19:03:55.037Z,99.90
2018-04-07T19:06:21.181Z,99.90
2018-04-07T19:08:47.413Z,99.90
2018-04-07T19:11:13.603Z,99.90
2018-04-07T19:13:39.741Z,99.90
2018-04-07T19:16:05.897Z,99.90
2018-04-07T19:18:32.056Z,99.90
2018-04-07T19:20:58.993Z,99.90
2018-04-07T19:23:25.920Z,99.90
2018-04-07T19:25:52.025Z,99.90
2018-04-07T19:28:18.260Z,99.90
2018-04-07T19:30:44.409Z,99.90
2018-04-07T19:33:10.630Z,99.90
2018-04-07T19:35:36.843Z,99.90
2018-04-07T19:38:03.040Z,99.90
2018-04-07T19:40:29.189Z,99.90
2018-04-07T19:42:55.418Z,99.90
2018-04-07T19:45:21.636Z,99.90
2018-04-07T19:47:47.802Z,99.90
2018-04-07T19:50:13.909Z,99.90
2018-04-07T19:52:40.072Z,99.90
2018-04-07T19:55:06.993Z,99.90
2018-04-07T19:57:33.141Z,99.90
2018-04-07T19:59:59.265Z,99.90
2018-04-07T20:02:25.463Z,99.90
2018-04-07T20:04:51.641Z,99.90
2018-04-07T20:07:18.537Z,99.90
2018-04-07T20:09:44.731Z,99.90
2018-04-07T20:12:10.914Z,99.90
2018-04-07T20:14:37.064Z,99.90
2018-04-07T20:17:04.039Z,99.90
2018-04-07T20:19:30.225Z,99.90
2018-04-07T20:21:57.086Z,99.90
2018-04-07T20:24:23.397Z,99.90
2018-04-07T20:26:52.007Z,99.90
2018-04-07T20:29:20.198Z,99.90
2018-04-07T20:31:46.420Z,99.90
2018-04-07T20:34:12.562Z,99.90
2018-04-07T20:36:38.726Z,99.90
2018-04-07T20:39:05.711Z,99.90
2018-04-07T20:41:31.909Z,99.90
2018-04-07T20:43:58.784Z,99.90
2018-04-07T20:46:25.001Z,99.90
2018-04-07T20:48:51.231Z,99.90
2018-04-07T20:51:17.396Z,99.90
2018-04-07T20:53:43.612Z,99.90
2018-04-07T20:56:09.841Z,99.90
2018-04-07T20:58:35.956Z,99.90
2018-04-07T21:01:02.117Z,99.90
2018-04-07T21:03:28.287Z,99.90
2018-04-07T21:05:55.190Z,99.90
2018-04-07T21:08:21.448Z,99.90
2018-04-07T21:10:48.367Z,99.90
2018-04-07T21:13:14.556Z,99.90
2018-04-07T21:15:40.788Z,99.90
2018-04-07T21:18:06.907Z,99.90
2018-04-07T21:20:33.041Z,99.90
2018-04-07T21:22:59.197Z,99.90
2018-04-07T21:25:25.383Z,99.90
2018-04-07T21:27:51.599Z,99.90
2018-04-07T21:30:17.792Z,99.90
2018-04-07T21:32:43.952Z,99.90
2018-04-07T21:35:10.132Z,99.90
2018-04-07T21:37:36.330Z,99.90
2018-04-07T21:40:02.575Z,99.90
2018-04-07T21:42:28.758Z,99.90
2018-04-07T21:44:55.719Z,99.90
2018-04-07T21:47:21.891Z,99.90
2018-04-07T21:49:48.092Z,99.90
2018-04-07T21:52:14.248Z,99.90
2018-04-07T21:54:40.483Z,99.90
2018-04-07T21:57:06.621Z,99.90
2018-04-07T21:59:32.776Z,99.90
2018-04-07T22:01:58.996Z,99.90
2018-04-07T22:04:25.172Z,99.90
2018-04-07T22:06:51.360Z,99.90
2018-04-07T22:09:17.470Z,99.90
2018-04-07T22:11:44.397Z,99.90
2018-04-07T22:14:11.372Z,99.90
2018-04-07T22:16:37.514Z,99.90
2018-04-07T22:19:03.746Z,99.90
2018-04-07T22:21:29.933Z,99.90
2018-04-07T22:23:56.912Z,99.90
2018-04-07T22:26:23.143Z,99.90
2018-04-07T22:28:49.309Z,99.90
2018-04-07T22:31:15.544Z,99.90
2018-04-07T22:33:41.787Z,99.90
2018-04-07T22:36:08.728Z,99.90
2018-04-07T22:38:35.738Z,99.90
2018-04-07T22:41:01.900Z,99.90
2018-04-07T22:43:28.798Z,99.90
2018-04-07T22:45:54.941Z,99.90
2018-04-07T22:48:21.077Z,99.90
2018-04-07T22:50:47.230Z,99.90
2018-04-07T22:53:13.360Z,99.90
2018-04-07T22:55:40.256Z,99.90
2018-04-07T22:58:06.392Z,99.90
2018-04-07T23:00:32.594Z,99.90
2018-04-07T23:02:58.782Z,99.90
2018-04-07T23:05:25.634Z,99.90
2018-04-07T23:07:52.521Z,99.90
2018-04-07T23:10:18.700Z,99.90
2018-04-07T23:12:45.640Z,99.90
2018-04-07T23:15:12.529Z,99.90
2018-04-07T23:17:38.659Z,99.90
2018-04-07T23:20:04.827Z,99.90
2018-04-07T23:22:30.993Z,99.90
2018-04-07T23:24:57.140Z,99.90
2018-04-07T23:27:23.320Z,99.90
2018-04-07T23:29:50.224Z,99.90
2018-04-07T23:32:16.341Z,99.90
2018-04-07T23:34:42.540Z,99.90
2018-04-07T23:37:08.709Z,99.90
2018-04-07T23:39:34.835Z,99.90
2018-04-07T23:42:01.007Z,99.90
2018-04-07T23:44:27.144Z,99.90
2018-04-07T23:49:46.444Z,99.90
2018-04-07T23:52:12.577Z,99.90
2018-04-07T23:54:38.695Z,99.90
2018-04-07T23:57:04.906Z,99.90
2018-04-07T23:59:31.046Z,99.90
